sensor_id;sensor_type;location;lat;lon;timestamp;P1;durP1;ratioP1;P2;durP2;ratioP2
64986;SDS011;51532;52.108;9.360;2023-01-24T00:00:41;22.52;;;15.35;;
64986;SDS011;51532;52.108;9.360;2023-01-24T00:03:09;23.13;;;14.45;;
64986;SDS011;51532;52.108;9.360;2023-01-24T00:05:39;20.23;;;13.70;;
64986;SDS011;51532;52.108;9.360;2023-01-24T00:08:07;21.60;;;14.73;;
64986;SDS011;51532;52.108;9.360;2023-01-24T00:10:34;21.70;;;14.88;;
64986;SDS011;51532;52.108;9.360;2023-01-24T00:13:02;22.45;;;14.45;;
64986;SDS011;51532;52.108;9.360;2023-01-24T00:15:29;22.90;;;14.60;;
64986;SDS011;51532;52.108;9.360;2023-01-24T00:17:57;23.73;;;15.25;;
64986;SDS011;51532;52.108;9.360;2023-01-24T00:20:24;21.92;;;14.63;;
64986;SDS011;51532;52.108;9.360;2023-01-24T00:22:51;23.02;;;15.02;;
64986;SDS011;51532;52.108;9.360;2023-01-24T00:25:18;21.38;;;14.52;;
64986;SDS011;51532;52.108;9.360;2023-01-24T00:27:45;21.77;;;14.98;;
64986;SDS011;51532;52.108;9.360;2023-01-24T00:30:12;20.38;;;13.70;;
64986;SDS011;51532;52.108;9.360;2023-01-24T00:32:39;21.88;;;14.60;;
64986;SDS011;51532;52.108;9.360;2023-01-24T00:35:06;21.02;;;14.35;;
64986;SDS011;51532;52.108;9.360;2023-01-24T00:37:33;22.00;;;14.35;;
64986;SDS011;51532;52.108;9.360;2023-01-24T00:40:00;20.98;;;14.32;;
64986;SDS011;51532;52.108;9.360;2023-01-24T00:42:26;20.48;;;14.00;;
64986;SDS011;51532;52.108;9.360;2023-01-24T00:44:53;18.83;;;13.90;;
64986;SDS011;51532;52.108;9.360;2023-01-24T00:47:20;18.88;;;13.55;;
64986;SDS011;51532;52.108;9.360;2023-01-24T00:49:47;19.38;;;13.13;;
64986;SDS011;51532;52.108;9.360;2023-01-24T00:52:13;20.60;;;13.73;;
64986;SDS011;51532;52.108;9.360;2023-01-24T00:54:40;18.10;;;12.57;;
64986;SDS011;51532;52.108;9.360;2023-01-24T00:57:07;19.23;;;13.43;;
64986;SDS011;51532;52.108;9.360;2023-01-24T00:59:34;17.63;;;11.90;;
64986;SDS011;51532;52.108;9.360;2023-01-24T01:02:04;18.92;;;12.45;;
64986;SDS011;51532;52.108;9.360;2023-01-24T01:04:31;17.40;;;12.68;;
64986;SDS011;51532;52.108;9.360;2023-01-24T01:06:57;16.63;;;12.05;;
64986;SDS011;51532;52.108;9.360;2023-01-24T01:09:24;18.08;;;12.85;;
64986;SDS011;51532;52.108;9.360;2023-01-24T01:11:51;17.85;;;11.80;;
64986;SDS011;51532;52.108;9.360;2023-01-24T01:14:18;17.38;;;11.07;;
64986;SDS011;51532;52.108;9.360;2023-01-24T01:16:45;17.98;;;12.63;;
64986;SDS011;51532;52.108;9.360;2023-01-24T01:19:11;15.05;;;11.10;;
64986;SDS011;51532;52.108;9.360;2023-01-24T01:21:38;14.15;;;10.95;;
64986;SDS011;51532;52.108;9.360;2023-01-24T01:24:05;17.65;;;11.73;;
64986;SDS011;51532;52.108;9.360;2023-01-24T01:26:32;16.13;;;11.63;;
64986;SDS011;51532;52.108;9.360;2023-01-24T01:28:59;15.45;;;11.30;;
64986;SDS011;51532;52.108;9.360;2023-01-24T01:31:26;17.60;;;13.23;;
64986;SDS011;51532;52.108;9.360;2023-01-24T01:33:53;15.63;;;12.30;;
64986;SDS011;51532;52.108;9.360;2023-01-24T01:36:20;17.52;;;12.50;;
64986;SDS011;51532;52.108;9.360;2023-01-24T01:38:47;17.20;;;12.20;;
64986;SDS011;51532;52.108;9.360;2023-01-24T01:41:14;17.00;;;11.55;;
64986;SDS011;51532;52.108;9.360;2023-01-24T01:43:40;17.13;;;11.57;;
64986;SDS011;51532;52.108;9.360;2023-01-24T01:46:28;16.17;;;11.57;;
64986;SDS011;51532;52.108;9.360;2023-01-24T01:49:01;16.65;;;11.55;;
64986;SDS011;51532;52.108;9.360;2023-01-24T01:51:42;17.92;;;12.55;;
64986;SDS011;51532;52.108;9.360;2023-01-24T01:54:19;17.83;;;11.93;;
64986;SDS011;51532;52.108;9.360;2023-01-24T01:56:52;15.50;;;11.35;;
64986;SDS011;51532;52.108;9.360;2023-01-24T01:59:40;17.67;;;12.52;;
64986;SDS011;51532;52.108;9.360;2023-01-24T02:02:14;19.15;;;13.10;;
64986;SDS011;51532;52.108;9.360;2023-01-24T02:04:45;20.00;;;13.45;;
64986;SDS011;51532;52.108;9.360;2023-01-24T02:10:13;19.52;;;13.27;;
64986;SDS011;51532;52.108;9.360;2023-01-24T02:12:45;18.48;;;13.02;;
64986;SDS011;51532;52.108;9.360;2023-01-24T02:15:18;17.17;;;12.23;;
64986;SDS011;51532;52.108;9.360;2023-01-24T02:18:05;16.98;;;12.63;;
64986;SDS011;51532;52.108;9.360;2023-01-24T02:20:37;16.98;;;12.27;;
64986;SDS011;51532;52.108;9.360;2023-01-24T02:26:13;16.13;;;11.43;;
64986;SDS011;51532;52.108;9.360;2023-01-24T02:28:54;17.58;;;12.65;;
64986;SDS011;51532;52.108;9.360;2023-01-24T02:31:28;19.55;;;11.90;;
64986;SDS011;51532;52.108;9.360;2023-01-24T02:33:55;16.23;;;11.80;;
64986;SDS011;51532;52.108;9.360;2023-01-24T02:36:30;15.98;;;11.40;;
64986;SDS011;51532;52.108;9.360;2023-01-24T02:39:01;15.48;;;11.20;;
64986;SDS011;51532;52.108;9.360;2023-01-24T02:41:33;18.50;;;11.93;;
64986;SDS011;51532;52.108;9.360;2023-01-24T02:44:11;15.75;;;11.57;;
64986;SDS011;51532;52.108;9.360;2023-01-24T02:46:43;15.43;;;11.63;;
64986;SDS011;51532;52.108;9.360;2023-01-24T02:49:11;16.38;;;11.68;;
64986;SDS011;51532;52.108;9.360;2023-01-24T02:51:38;16.67;;;12.13;;
64986;SDS011;51532;52.108;9.360;2023-01-24T02:54:24;14.88;;;11.43;;
64986;SDS011;51532;52.108;9.360;2023-01-24T02:56:50;17.02;;;11.88;;
64986;SDS011;51532;52.108;9.360;2023-01-24T02:59:36;16.77;;;11.70;;
64986;SDS011;51532;52.108;9.360;2023-01-24T03:02:03;16.13;;;10.93;;
64986;SDS011;51532;52.108;9.360;2023-01-24T03:04:30;16.13;;;11.38;;
64986;SDS011;51532;52.108;9.360;2023-01-24T03:06:57;14.90;;;11.35;;
64986;SDS011;51532;52.108;9.360;2023-01-24T03:09:24;14.35;;;10.63;;
64986;SDS011;51532;52.108;9.360;2023-01-24T03:12:06;15.73;;;11.13;;
64986;SDS011;51532;52.108;9.360;2023-01-24T03:14:55;12.52;;;9.52;;
64986;SDS011;51532;52.108;9.360;2023-01-24T03:17:42;14.68;;;10.70;;
64986;SDS011;51532;52.108;9.360;2023-01-24T03:20:27;15.82;;;11.00;;
64986;SDS011;51532;52.108;9.360;2023-01-24T03:23:13;14.32;;;10.40;;
64986;SDS011;51532;52.108;9.360;2023-01-24T03:26:00;13.30;;;10.25;;
64986;SDS011;51532;52.108;9.360;2023-01-24T03:28:46;13.35;;;9.18;;
64986;SDS011;51532;52.108;9.360;2023-01-24T03:31:33;12.48;;;8.82;;
64986;SDS011;51532;52.108;9.360;2023-01-24T03:34:21;12.43;;;8.95;;
64986;SDS011;51532;52.108;9.360;2023-01-24T03:37:13;11.45;;;8.65;;
64986;SDS011;51532;52.108;9.360;2023-01-24T03:39:40;11.95;;;8.60;;
64986;SDS011;51532;52.108;9.360;2023-01-24T03:42:29;12.02;;;9.00;;
64986;SDS011;51532;52.108;9.360;2023-01-24T03:44:56;9.82;;;7.63;;
64986;SDS011;51532;52.108;9.360;2023-01-24T03:47:23;8.00;;;6.55;;
64986;SDS011;51532;52.108;9.360;2023-01-24T03:49:49;9.07;;;6.10;;
64986;SDS011;51532;52.108;9.360;2023-01-24T03:52:35;9.15;;;6.40;;
64986;SDS011;51532;52.108;9.360;2023-01-24T03:55:04;8.98;;;6.18;;
64986;SDS011;51532;52.108;9.360;2023-01-24T03:57:34;7.18;;;5.88;;
64986;SDS011;51532;52.108;9.360;2023-01-24T04:00:05;8.80;;;5.85;;
64986;SDS011;51532;52.108;9.360;2023-01-24T04:02:42;8.13;;;5.93;;
64986;SDS011;51532;52.108;9.360;2023-01-24T04:05:09;7.35;;;5.50;;
64986;SDS011;51532;52.108;9.360;2023-01-24T04:07:41;9.68;;;6.32;;
64986;SDS011;51532;52.108;9.360;2023-01-24T04:10:08;7.85;;;6.13;;
64986;SDS011;51532;52.108;9.360;2023-01-24T04:12:42;7.32;;;5.97;;
64986;SDS011;51532;52.108;9.360;2023-01-24T04:15:13;8.63;;;6.45;;
64986;SDS011;51532;52.108;9.360;2023-01-24T04:17:51;7.88;;;5.97;;
64986;SDS011;51532;52.108;9.360;2023-01-24T04:20:23;8.57;;;6.65;;
64986;SDS011;51532;52.108;9.360;2023-01-24T04:22:52;8.38;;;7.07;;
64986;SDS011;51532;52.108;9.360;2023-01-24T04:25:19;7.93;;;6.38;;
64986;SDS011;51532;52.108;9.360;2023-01-24T04:27:47;7.22;;;6.40;;
64986;SDS011;51532;52.108;9.360;2023-01-24T04:30:20;8.60;;;5.82;;
64986;SDS011;51532;52.108;9.360;2023-01-24T04:32:51;5.93;;;5.32;;
64986;SDS011;51532;52.108;9.360;2023-01-24T04:35:24;7.55;;;6.30;;
64986;SDS011;51532;52.108;9.360;2023-01-24T04:38:00;8.77;;;6.70;;
64986;SDS011;51532;52.108;9.360;2023-01-24T04:40:55;7.47;;;5.97;;
64986;SDS011;51532;52.108;9.360;2023-01-24T04:43:23;8.73;;;6.25;;
64986;SDS011;51532;52.108;9.360;2023-01-24T04:45:53;8.52;;;6.47;;
64986;SDS011;51532;52.108;9.360;2023-01-24T04:48:23;10.73;;;7.18;;
64986;SDS011;51532;52.108;9.360;2023-01-24T04:50:50;8.10;;;6.72;;
64986;SDS011;51532;52.108;9.360;2023-01-24T04:53:18;9.13;;;6.45;;
64986;SDS011;51532;52.108;9.360;2023-01-24T04:55:47;7.25;;;5.68;;
64986;SDS011;51532;52.108;9.360;2023-01-24T04:58:14;8.60;;;6.75;;
64986;SDS011;51532;52.108;9.360;2023-01-24T05:00:41;7.25;;;6.05;;
64986;SDS011;51532;52.108;9.360;2023-01-24T05:03:09;7.47;;;5.90;;
64986;SDS011;51532;52.108;9.360;2023-01-24T05:05:37;7.35;;;6.53;;
64986;SDS011;51532;52.108;9.360;2023-01-24T05:08:04;8.35;;;6.55;;
64986;SDS011;51532;52.108;9.360;2023-01-24T05:10:31;8.40;;;6.13;;
64986;SDS011;51532;52.108;9.360;2023-01-24T05:12:58;8.32;;;6.13;;
64986;SDS011;51532;52.108;9.360;2023-01-24T05:15:29;7.68;;;6.32;;
64986;SDS011;51532;52.108;9.360;2023-01-24T05:17:58;9.02;;;6.78;;
64986;SDS011;51532;52.108;9.360;2023-01-24T05:20:25;8.02;;;6.65;;
64986;SDS011;51532;52.108;9.360;2023-01-24T05:22:57;8.80;;;6.88;;
64986;SDS011;51532;52.108;9.360;2023-01-24T05:25:26;8.60;;;6.95;;
64986;SDS011;51532;52.108;9.360;2023-01-24T05:27:53;8.82;;;7.32;;
64986;SDS011;51532;52.108;9.360;2023-01-24T05:30:21;8.85;;;6.78;;
64986;SDS011;51532;52.108;9.360;2023-01-24T05:32:50;10.23;;;6.47;;
64986;SDS011;51532;52.108;9.360;2023-01-24T05:35:21;7.47;;;5.65;;
64986;SDS011;51532;52.108;9.360;2023-01-24T05:37:48;7.05;;;6.07;;
64986;SDS011;51532;52.108;9.360;2023-01-24T05:40:18;7.90;;;6.20;;
64986;SDS011;51532;52.108;9.360;2023-01-24T05:42:45;9.30;;;6.53;;
64986;SDS011;51532;52.108;9.360;2023-01-24T05:45:12;7.60;;;6.18;;
64986;SDS011;51532;52.108;9.360;2023-01-24T05:47:39;8.52;;;6.60;;
64986;SDS011;51532;52.108;9.360;2023-01-24T05:50:09;7.22;;;5.40;;
64986;SDS011;51532;52.108;9.360;2023-01-24T05:52:36;6.45;;;5.43;;
64986;SDS011;51532;52.108;9.360;2023-01-24T05:55:03;7.85;;;6.50;;
64986;SDS011;51532;52.108;9.360;2023-01-24T05:57:35;6.90;;;5.78;;
64986;SDS011;51532;52.108;9.360;2023-01-24T06:00:30;6.68;;;5.15;;
64986;SDS011;51532;52.108;9.360;2023-01-24T06:03:29;6.68;;;5.25;;
64986;SDS011;51532;52.108;9.360;2023-01-24T06:05:56;5.85;;;4.97;;
64986;SDS011;51532;52.108;9.360;2023-01-24T06:08:27;4.80;;;4.35;;
64986;SDS011;51532;52.108;9.360;2023-01-24T06:10:54;5.45;;;4.75;;
64986;SDS011;51532;52.108;9.360;2023-01-24T06:13:22;6.80;;;4.80;;
64986;SDS011;51532;52.108;9.360;2023-01-24T06:15:49;6.72;;;5.07;;
64986;SDS011;51532;52.108;9.360;2023-01-24T06:18:16;5.07;;;4.38;;
64986;SDS011;51532;52.108;9.360;2023-01-24T06:20:47;7.80;;;5.22;;
64986;SDS011;51532;52.108;9.360;2023-01-24T06:23:33;6.60;;;5.90;;
64986;SDS011;51532;52.108;9.360;2023-01-24T06:26:03;12.00;;;9.48;;
64986;SDS011;51532;52.108;9.360;2023-01-24T06:28:30;5.25;;;4.55;;
64986;SDS011;51532;52.108;9.360;2023-01-24T06:30:59;54.97;;;35.58;;
64986;SDS011;51532;52.108;9.360;2023-01-24T06:34:16;58.80;;;38.28;;
64986;SDS011;51532;52.108;9.360;2023-01-24T06:36:40;6.45;;;5.18;;
64986;SDS011;51532;52.108;9.360;2023-01-24T06:39:22;4.93;;;4.18;;
64986;SDS011;51532;52.108;9.360;2023-01-24T06:41:49;5.63;;;4.40;;
64986;SDS011;51532;52.108;9.360;2023-01-24T06:44:16;5.63;;;4.15;;
64986;SDS011;51532;52.108;9.360;2023-01-24T06:46:43;22.80;;;16.73;;
64986;SDS011;51532;52.108;9.360;2023-01-24T06:49:10;4.82;;;4.32;;
64986;SDS011;51532;52.108;9.360;2023-01-24T06:51:38;9.35;;;7.18;;
64986;SDS011;51532;52.108;9.360;2023-01-24T06:54:05;6.47;;;5.72;;
64986;SDS011;51532;52.108;9.360;2023-01-24T06:56:31;6.97;;;5.53;;
64986;SDS011;51532;52.108;9.360;2023-01-24T06:58:58;6.22;;;4.90;;
64986;SDS011;51532;52.108;9.360;2023-01-24T07:01:25;5.53;;;4.13;;
64986;SDS011;51532;52.108;9.360;2023-01-24T07:03:52;4.88;;;4.10;;
64986;SDS011;51532;52.108;9.360;2023-01-24T07:06:19;4.30;;;3.90;;
64986;SDS011;51532;52.108;9.360;2023-01-24T07:08:48;5.28;;;4.10;;
64986;SDS011;51532;52.108;9.360;2023-01-24T07:11:15;4.25;;;3.80;;
64986;SDS011;51532;52.108;9.360;2023-01-24T07:13:42;24.85;;;17.23;;
64986;SDS011;51532;52.108;9.360;2023-01-24T07:16:09;4.63;;;4.15;;
64986;SDS011;51532;52.108;9.360;2023-01-24T07:18:35;5.00;;;4.15;;
64986;SDS011;51532;52.108;9.360;2023-01-24T07:21:06;5.00;;;4.50;;
64986;SDS011;51532;52.108;9.360;2023-01-24T07:23:34;5.25;;;4.38;;
64986;SDS011;51532;52.108;9.360;2023-01-24T07:26:02;5.40;;;4.28;;
64986;SDS011;51532;52.108;9.360;2023-01-24T07:28:29;3.40;;;3.10;;
64986;SDS011;51532;52.108;9.360;2023-01-24T07:30:56;5.57;;;3.90;;
64986;SDS011;51532;52.108;9.360;2023-01-24T07:33:23;4.25;;;3.45;;
64986;SDS011;51532;52.108;9.360;2023-01-24T07:35:50;3.78;;;3.47;;
64986;SDS011;51532;52.108;9.360;2023-01-24T07:38:16;3.85;;;3.47;;
64986;SDS011;51532;52.108;9.360;2023-01-24T07:40:43;4.78;;;3.80;;
64986;SDS011;51532;52.108;9.360;2023-01-24T07:43:10;3.40;;;3.10;;
64986;SDS011;51532;52.108;9.360;2023-01-24T07:45:37;3.55;;;3.20;;
64986;SDS011;51532;52.108;9.360;2023-01-24T07:48:07;4.72;;;3.50;;
64986;SDS011;51532;52.108;9.360;2023-01-24T07:50:34;5.57;;;3.65;;
64986;SDS011;51532;52.108;9.360;2023-01-24T07:53:01;3.50;;;3.20;;
64986;SDS011;51532;52.108;9.360;2023-01-24T07:55:28;3.78;;;3.47;;
64986;SDS011;51532;52.108;9.360;2023-01-24T07:57:59;3.50;;;3.20;;
64986;SDS011;51532;52.108;9.360;2023-01-24T08:00:27;3.85;;;3.20;;
64986;SDS011;51532;52.108;9.360;2023-01-24T08:02:54;4.43;;;3.15;;
64986;SDS011;51532;52.108;9.360;2023-01-24T08:05:21;3.50;;;3.00;;
64986;SDS011;51532;52.108;9.360;2023-01-24T08:07:48;4.50;;;3.15;;
64986;SDS011;51532;52.108;9.360;2023-01-24T08:10:15;3.15;;;2.65;;
64986;SDS011;51532;52.108;9.360;2023-01-24T08:12:42;3.40;;;3.10;;
64986;SDS011;51532;52.108;9.360;2023-01-24T08:15:09;3.88;;;3.28;;
64986;SDS011;51532;52.108;9.360;2023-01-24T08:17:36;3.67;;;3.20;;
64986;SDS011;51532;52.108;9.360;2023-01-24T08:20:04;3.38;;;3.08;;
64986;SDS011;51532;52.108;9.360;2023-01-24T08:22:31;3.03;;;2.72;;
64986;SDS011;51532;52.108;9.360;2023-01-24T08:24:58;3.78;;;3.22;;
64986;SDS011;51532;52.108;9.360;2023-01-24T08:27:25;3.30;;;2.95;;
64986;SDS011;51532;52.108;9.360;2023-01-24T08:29:51;4.15;;;3.75;;
64986;SDS011;51532;52.108;9.360;2023-01-24T08:32:19;4.25;;;3.78;;
64986;SDS011;51532;52.108;9.360;2023-01-24T08:34:45;5.25;;;3.47;;
64986;SDS011;51532;52.108;9.360;2023-01-24T08:37:12;2.90;;;2.58;;
64986;SDS011;51532;52.108;9.360;2023-01-24T08:39:39;2.90;;;2.60;;
64986;SDS011;51532;52.108;9.360;2023-01-24T08:42:06;3.38;;;3.08;;
64986;SDS011;51532;52.108;9.360;2023-01-24T08:44:33;3.28;;;2.97;;
64986;SDS011;51532;52.108;9.360;2023-01-24T08:47:00;4.15;;;2.95;;
64986;SDS011;51532;52.108;9.360;2023-01-24T08:49:27;3.95;;;3.33;;
64986;SDS011;51532;52.108;9.360;2023-01-24T08:51:54;3.30;;;3.00;;
64986;SDS011;51532;52.108;9.360;2023-01-24T08:54:26;4.30;;;3.38;;
64986;SDS011;51532;52.108;9.360;2023-01-24T08:56:54;3.70;;;3.03;;
64986;SDS011;51532;52.108;9.360;2023-01-24T08:59:21;4.47;;;3.40;;
64986;SDS011;51532;52.108;9.360;2023-01-24T09:01:48;3.47;;;3.00;;
64986;SDS011;51532;52.108;9.360;2023-01-24T09:04:15;3.85;;;3.03;;
64986;SDS011;51532;52.108;9.360;2023-01-24T09:06:42;3.13;;;2.83;;
64986;SDS011;51532;52.108;9.360;2023-01-24T09:09:08;3.17;;;2.88;;
64986;SDS011;51532;52.108;9.360;2023-01-24T09:11:35;3.40;;;2.97;;
64986;SDS011;51532;52.108;9.360;2023-01-24T09:14:02;4.03;;;3.40;;
64986;SDS011;51532;52.108;9.360;2023-01-24T09:16:29;3.22;;;2.92;;
64986;SDS011;51532;52.108;9.360;2023-01-24T09:18:56;3.20;;;2.90;;
64986;SDS011;51532;52.108;9.360;2023-01-24T09:21:23;3.50;;;2.50;;
64986;SDS011;51532;52.108;9.360;2023-01-24T09:23:49;3.22;;;2.83;;
64986;SDS011;51532;52.108;9.360;2023-01-24T09:26:19;3.42;;;2.83;;
64986;SDS011;51532;52.108;9.360;2023-01-24T09:28:46;3.80;;;3.42;;
64986;SDS011;51532;52.108;9.360;2023-01-24T09:31:12;3.40;;;3.10;;
64986;SDS011;51532;52.108;9.360;2023-01-24T09:33:39;3.30;;;3.00;;
64986;SDS011;51532;52.108;9.360;2023-01-24T09:36:23;3.90;;;3.45;;
64986;SDS011;51532;52.108;9.360;2023-01-24T09:38:50;3.63;;;3.33;;
64986;SDS011;51532;52.108;9.360;2023-01-24T09:44:16;3.80;;;3.40;;
64986;SDS011;51532;52.108;9.360;2023-01-24T09:46:54;3.80;;;3.25;;
64986;SDS011;51532;52.108;9.360;2023-01-24T09:49:22;3.78;;;3.47;;
64986;SDS011;51532;52.108;9.360;2023-01-24T09:51:56;3.75;;;3.28;;
64986;SDS011;51532;52.108;9.360;2023-01-24T09:56:58;3.20;;;2.90;;
64986;SDS011;51532;52.108;9.360;2023-01-24T09:59:34;3.30;;;3.00;;
64986;SDS011;51532;52.108;9.360;2023-01-24T10:02:13;3.75;;;3.45;;
64986;SDS011;51532;52.108;9.360;2023-01-24T10:04:44;4.32;;;3.38;;
64986;SDS011;51532;52.108;9.360;2023-01-24T10:07:20;3.72;;;3.28;;
64986;SDS011;51532;52.108;9.360;2023-01-24T10:12:46;4.25;;;3.33;;
64986;SDS011;51532;52.108;9.360;2023-01-24T10:18:02;3.97;;;3.55;;
64986;SDS011;51532;52.108;9.360;2023-01-24T10:23:26;3.65;;;3.25;;
64986;SDS011;51532;52.108;9.360;2023-01-24T10:25:58;4.60;;;3.70;;
64986;SDS011;51532;52.108;9.360;2023-01-24T10:28:50;5.95;;;3.50;;
64986;SDS011;51532;52.108;9.360;2023-01-24T10:31:25;3.60;;;3.30;;
64986;SDS011;51532;52.108;9.360;2023-01-24T10:33:55;5.38;;;3.90;;
64986;SDS011;51532;52.108;9.360;2023-01-24T10:39:50;3.85;;;3.33;;
64986;SDS011;51532;52.108;9.360;2023-01-24T10:44:52;4.35;;;3.88;;
64986;SDS011;51532;52.108;9.360;2023-01-24T10:47:41;4.28;;;3.85;;
64986;SDS011;51532;52.108;9.360;2023-01-24T10:50:22;4.38;;;3.97;;
64986;SDS011;51532;52.108;9.360;2023-01-24T10:52:52;4.57;;;4.10;;
64986;SDS011;51532;52.108;9.360;2023-01-24T10:55:25;5.35;;;4.00;;
64986;SDS011;51532;52.108;9.360;2023-01-24T10:58:22;4.65;;;4.15;;
64986;SDS011;51532;52.108;9.360;2023-01-24T11:01:08;5.10;;;4.60;;
64986;SDS011;51532;52.108;9.360;2023-01-24T11:03:43;5.40;;;4.68;;
64986;SDS011;51532;52.108;9.360;2023-01-24T11:06:22;5.38;;;4.68;;
64986;SDS011;51532;52.108;9.360;2023-01-24T11:08:55;5.55;;;4.47;;
64986;SDS011;51532;52.108;9.360;2023-01-24T11:11:29;5.07;;;4.55;;
64986;SDS011;51532;52.108;9.360;2023-01-24T11:14:00;5.28;;;4.78;;
64986;SDS011;51532;52.108;9.360;2023-01-24T11:16:33;5.57;;;4.85;;
64986;SDS011;51532;52.108;9.360;2023-01-24T11:19:20;4.85;;;4.20;;
64986;SDS011;51532;52.108;9.360;2023-01-24T11:21:55;5.30;;;4.70;;
64986;SDS011;51532;52.108;9.360;2023-01-24T11:24:26;6.07;;;5.47;;
64986;SDS011;51532;52.108;9.360;2023-01-24T11:27:01;6.60;;;5.20;;
64986;SDS011;51532;52.108;9.360;2023-01-24T11:29:30;5.82;;;5.22;;
64986;SDS011;51532;52.108;9.360;2023-01-24T11:40:45;6.15;;;5.55;;
64986;SDS011;51532;52.108;9.360;2023-01-24T11:46:21;6.35;;;5.18;;
64986;SDS011;51532;52.108;9.360;2023-01-24T11:52:30;6.60;;;5.13;;
64986;SDS011;51532;52.108;9.360;2023-01-24T11:58:03;6.70;;;5.75;;
64986;SDS011;51532;52.108;9.360;2023-01-24T12:03:32;6.78;;;6.00;;
64986;SDS011;51532;52.108;9.360;2023-01-24T12:06:23;6.63;;;6.00;;
64986;SDS011;51532;52.108;9.360;2023-01-24T12:09:09;7.53;;;6.72;;
64986;SDS011;51532;52.108;9.360;2023-01-24T12:14:42;7.63;;;5.88;;
64986;SDS011;51532;52.108;9.360;2023-01-24T12:20:28;7.88;;;5.97;;
64986;SDS011;51532;52.108;9.360;2023-01-24T12:23:04;7.47;;;6.15;;
64986;SDS011;51532;52.108;9.360;2023-01-24T12:25:55;7.05;;;5.65;;
64986;SDS011;51532;52.108;9.360;2023-01-24T12:28:35;6.88;;;6.20;;
64986;SDS011;51532;52.108;9.360;2023-01-24T12:31:11;6.90;;;5.93;;
64986;SDS011;51532;52.108;9.360;2023-01-24T12:33:46;7.53;;;6.82;;
64986;SDS011;51532;52.108;9.360;2023-01-24T12:36:37;7.18;;;6.28;;
64986;SDS011;51532;52.108;9.360;2023-01-24T12:39:19;6.38;;;5.78;;
64986;SDS011;51532;52.108;9.360;2023-01-24T12:41:51;7.65;;;6.68;;
64986;SDS011;51532;52.108;9.360;2023-01-24T12:52:37;9.50;;;7.78;;
64986;SDS011;51532;52.108;9.360;2023-01-24T12:57:58;9.18;;;8.23;;
64986;SDS011;51532;52.108;9.360;2023-01-24T13:00:39;8.77;;;7.85;;
64986;SDS011;51532;52.108;9.360;2023-01-24T13:03:34;14.60;;;8.38;;
64986;SDS011;51532;52.108;9.360;2023-01-24T13:09:13;10.80;;;8.68;;
64986;SDS011;51532;52.108;9.360;2023-01-24T13:11:58;9.38;;;7.55;;
64986;SDS011;51532;52.108;9.360;2023-01-24T13:14:29;9.75;;;8.75;;
64986;SDS011;51532;52.108;9.360;2023-01-24T13:17:21;9.65;;;8.27;;
64986;SDS011;51532;52.108;9.360;2023-01-24T13:20:21;10.50;;;9.07;;
64986;SDS011;51532;52.108;9.360;2023-01-24T13:28:22;11.60;;;8.77;;
64986;SDS011;51532;52.108;9.360;2023-01-24T13:34:01;9.15;;;8.25;;
64986;SDS011;51532;52.108;9.360;2023-01-24T13:36:38;11.07;;;9.27;;
64986;SDS011;51532;52.108;9.360;2023-01-24T13:39:05;11.07;;;9.32;;
64986;SDS011;51532;52.108;9.360;2023-01-24T13:41:33;9.43;;;8.38;;
64986;SDS011;51532;52.108;9.360;2023-01-24T13:46:56;12.07;;;9.43;;
64986;SDS011;51532;52.108;9.360;2023-01-24T13:49:37;10.38;;;9.15;;
64986;SDS011;51532;52.108;9.360;2023-01-24T13:52:51;10.65;;;8.93;;
64986;SDS011;51532;52.108;9.360;2023-01-24T13:54:59;12.05;;;9.32;;
64986;SDS011;51532;52.108;9.360;2023-01-24T13:57:27;11.77;;;9.30;;
64986;SDS011;51532;52.108;9.360;2023-01-24T14:00:17;13.23;;;10.77;;
64986;SDS011;51532;52.108;9.360;2023-01-24T14:07:56;11.40;;;8.45;;
64986;SDS011;51532;52.108;9.360;2023-01-24T14:10:34;11.02;;;8.18;;
64986;SDS011;51532;52.108;9.360;2023-01-24T14:13:40;10.80;;;9.60;;
64986;SDS011;51532;52.108;9.360;2023-01-24T14:16:58;12.90;;;10.13;;
64986;SDS011;51532;52.108;9.360;2023-01-24T14:21:45;11.40;;;9.38;;
64986;SDS011;51532;52.108;9.360;2023-01-24T14:24:25;11.77;;;10.27;;
64986;SDS011;51532;52.108;9.360;2023-01-24T14:26:53;12.48;;;9.60;;
64986;SDS011;51532;52.108;9.360;2023-01-24T14:29:28;12.57;;;9.88;;
64986;SDS011;51532;52.108;9.360;2023-01-24T14:32:04;13.00;;;9.32;;
64986;SDS011;51532;52.108;9.360;2023-01-24T14:34:43;13.13;;;9.98;;
64986;SDS011;51532;52.108;9.360;2023-01-24T14:37:16;11.75;;;9.88;;
64986;SDS011;51532;52.108;9.360;2023-01-24T14:39:43;12.30;;;9.43;;
64986;SDS011;51532;52.108;9.360;2023-01-24T14:42:12;14.10;;;10.60;;
64986;SDS011;51532;52.108;9.360;2023-01-24T14:44:52;13.25;;;10.40;;
64986;SDS011;51532;52.108;9.360;2023-01-24T14:47:21;13.10;;;10.43;;
64986;SDS011;51532;52.108;9.360;2023-01-24T14:49:52;12.60;;;10.60;;
64986;SDS011;51532;52.108;9.360;2023-01-24T14:52:24;12.98;;;10.50;;
64986;SDS011;51532;52.108;9.360;2023-01-24T14:54:56;14.52;;;11.20;;
64986;SDS011;51532;52.108;9.360;2023-01-24T14:57:26;12.23;;;10.10;;
64986;SDS011;51532;52.108;9.360;2023-01-24T15:02:39;13.20;;;10.98;;
64986;SDS011;51532;52.108;9.360;2023-01-24T15:05:24;14.00;;;11.00;;
64986;SDS011;51532;52.108;9.360;2023-01-24T15:07:55;13.45;;;10.77;;
64986;SDS011;51532;52.108;9.360;2023-01-24T15:12:53;15.27;;;10.98;;
64986;SDS011;51532;52.108;9.360;2023-01-24T15:15:22;12.82;;;10.40;;
64986;SDS011;51532;52.108;9.360;2023-01-24T15:17:50;13.23;;;9.98;;
64986;SDS011;51532;52.108;9.360;2023-01-24T15:20:25;12.60;;;11.02;;
64986;SDS011;51532;52.108;9.360;2023-01-24T15:22:54;15.77;;;11.55;;
64986;SDS011;51532;52.108;9.360;2023-01-24T15:25:27;12.63;;;10.27;;
64986;SDS011;51532;52.108;9.360;2023-01-24T15:27:55;14.57;;;11.38;;
64986;SDS011;51532;52.108;9.360;2023-01-24T15:30:24;14.73;;;10.60;;
64986;SDS011;51532;52.108;9.360;2023-01-24T15:43:15;14.88;;;11.48;;
64986;SDS011;51532;52.108;9.360;2023-01-24T15:46:28;14.45;;;10.75;;
64986;SDS011;51532;52.108;9.360;2023-01-24T15:49:24;14.05;;;10.60;;
64986;SDS011;51532;52.108;9.360;2023-01-24T15:54:34;14.43;;;11.27;;
64986;SDS011;51532;52.108;9.360;2023-01-24T15:57:08;14.43;;;11.45;;
64986;SDS011;51532;52.108;9.360;2023-01-24T15:59:50;15.13;;;11.57;;
64986;SDS011;51532;52.108;9.360;2023-01-24T16:02:20;15.98;;;11.63;;
64986;SDS011;51532;52.108;9.360;2023-01-24T16:04:47;14.00;;;10.88;;
64986;SDS011;51532;52.108;9.360;2023-01-24T16:07:15;13.90;;;11.73;;
64986;SDS011;51532;52.108;9.360;2023-01-24T16:09:45;12.93;;;10.23;;
64986;SDS011;51532;52.108;9.360;2023-01-24T16:12:15;13.57;;;10.93;;
64986;SDS011;51532;52.108;9.360;2023-01-24T16:14:46;13.27;;;11.07;;
64986;SDS011;51532;52.108;9.360;2023-01-24T16:17:32;16.23;;;11.60;;
64986;SDS011;51532;52.108;9.360;2023-01-24T16:19:59;18.95;;;12.23;;
64986;SDS011;51532;52.108;9.360;2023-01-24T16:22:26;17.50;;;11.77;;
64986;SDS011;51532;52.108;9.360;2023-01-24T16:24:55;16.20;;;10.90;;
64986;SDS011;51532;52.108;9.360;2023-01-24T16:27:21;14.32;;;11.52;;
64986;SDS011;51532;52.108;9.360;2023-01-24T16:29:48;17.77;;;11.95;;
64986;SDS011;51532;52.108;9.360;2023-01-24T16:32:20;15.45;;;11.27;;
64986;SDS011;51532;52.108;9.360;2023-01-24T16:34:49;14.15;;;10.75;;
64986;SDS011;51532;52.108;9.360;2023-01-24T16:37:16;15.27;;;11.45;;
64986;SDS011;51532;52.108;9.360;2023-01-24T16:39:47;14.00;;;11.07;;
64986;SDS011;51532;52.108;9.360;2023-01-24T16:42:15;17.15;;;12.48;;
64986;SDS011;51532;52.108;9.360;2023-01-24T16:44:53;16.05;;;12.48;;
64986;SDS011;51532;52.108;9.360;2023-01-24T16:47:26;15.63;;;11.98;;
64986;SDS011;51532;52.108;9.360;2023-01-24T16:49:54;14.23;;;12.07;;